Time;durP1;ratioP1;P1;durP2;ratioP2;P2;SDS_P1;SDS_P2;PMS_P1;PMS_P2;Temp;Humidity;BMP_temperature;BMP_pressure;BME280_temperature;BME280_humidity;BME280_pressure;Samples;Min_cycle;Max_cycle;Signal;HPM_P1;HPM_P2
2021/01/19 00:00:44;0.00;0.00;0.62;0.00;0.00;0.62;1.30;0.90;;;20.00;28.10;;;;;;2257218;61;20355;-65
2021/01/19 00:03:28;0.00;0.00;0.62;0.00;0.00;0.62;1.23;0.77;;;20.00;28.10;;;;;;2258410;61;20367;-64
2021/01/19 00:06:16;0.00;0.00;0.62;0.00;0.00;0.62;1.43;1.00;;;20.00;28.10;;;;;;2258386;61;20375;-65
2021/01/19 00:09:00;0.00;0.00;0.62;0.00;0.00;0.62;1.30;0.87;;;20.00;28.10;;;;;;2257731;61;20364;-64
2021/01/19 00:11:46;0.00;0.00;0.62;0.00;0.00;0.62;1.97;1.17;;;20.00;28.10;;;;;;2258371;61;20435;-63
2021/01/19 00:14:30;0.00;0.00;0.62;0.00;0.00;0.62;1.90;1.20;;;20.00;28.10;;;;;;2257529;61;20371;-65
2021/01/19 00:17:16;0.00;0.00;0.62;0.00;0.00;0.62;1.20;0.80;;;19.90;28.00;;;;;;2257861;61;20375;-64
2021/01/19 00:20:03;0.00;0.00;0.62;0.00;0.00;0.62;1.50;0.90;;;20.00;28.10;;;;;;2257816;61;20382;-64
2021/01/19 00:22:47;0.00;0.00;0.62;0.00;0.00;0.62;1.33;0.80;;;20.00;28.10;;;;;;2257353;61;20403;-64
2021/01/19 00:25:35;0.00;0.00;0.62;0.00;0.00;0.62;2.80;1.10;;;19.90;28.00;;;;;;2258427;61;20407;-64
2021/01/19 00:28:20;0.00;0.00;0.62;0.00;0.00;0.62;1.40;0.90;;;20.00;28.20;;;;;;2258530;61;20387;-65
2021/01/19 00:31:05;0.00;0.00;0.62;0.00;0.00;0.62;1.33;0.73;;;20.00;28.20;;;;;;2257265;61;20442;-64
2021/01/19 00:33:51;0.00;0.00;0.62;0.00;0.00;0.62;1.30;0.87;;;20.00;28.10;;;;;;2258304;61;20580;-64
2021/01/19 00:36:35;0.00;0.00;0.62;0.00;0.00;0.62;1.53;1.00;;;20.00;28.20;;;;;;2257754;61;20391;-64
2021/01/19 00:39:21;0.00;0.00;0.62;0.00;0.00;0.62;1.80;1.00;;;20.00;28.20;;;;;;2257377;61;20487;-65
2021/01/19 00:42:06;0.00;0.00;0.62;0.00;0.00;0.62;1.60;1.00;;;20.00;28.20;;;;;;2258626;61;20367;-63
2021/01/19 00:44:51;0.00;0.00;0.62;0.00;0.00;0.62;1.40;1.00;;;20.00;28.20;;;;;;2257223;61;20424;-62
2021/01/19 00:47:39;0.00;0.00;0.62;0.00;0.00;0.62;1.87;0.97;;;20.00;28.20;;;;;;2258691;61;20375;-68
2021/01/19 00:50:25;0.00;0.00;0.62;0.00;0.00;0.62;2.13;1.03;;;20.00;28.20;;;;;;2258073;61;20411;-62
2021/01/19 00:53:11;0.00;0.00;0.62;0.00;0.00;0.62;1.30;0.80;;;20.00;28.30;;;;;;2256828;61;20597;-62
2021/01/19 00:55:56;0.00;0.00;0.62;0.00;0.00;0.62;1.60;1.03;;;20.00;28.20;;;;;;2258061;61;20379;-62
2021/01/19 00:58:43;0.00;0.00;0.62;0.00;0.00;0.62;2.43;1.40;;;20.00;28.20;;;;;;2257510;61;20402;-63
2021/01/19 01:01:29;0.00;0.00;0.62;0.00;0.00;0.62;1.67;1.30;;;20.00;28.20;;;;;;2258227;61;20371;-63
2021/01/19 01:04:14;0.00;0.00;0.62;0.00;0.00;0.62;1.50;1.20;;;20.00;28.20;;;;;;2258581;61;20383;-62
2021/01/19 01:07:00;0.00;0.00;0.62;0.00;0.00;0.62;1.50;1.13;;;20.00;28.20;;;;;;2259761;61;20379;-66
2021/01/19 01:09:45;0.00;0.00;0.62;0.00;0.00;0.62;1.50;0.93;;;20.00;28.20;;;;;;2262560;61;20488;-65
2021/01/19 01:12:31;0.00;0.00;0.62;0.00;0.00;0.62;1.70;1.20;;;20.00;28.20;;;;;;2261717;61;20355;-63
2021/01/19 01:15:27;0.00;0.00;0.62;0.00;0.00;0.62;1.30;1.00;;;20.00;28.20;;;;;;2260316;61;20387;-65
2021/01/19 01:18:14;0.00;0.00;0.62;0.00;0.00;0.62;2.30;1.10;;;20.00;28.20;;;;;;2261116;61;20407;-64
2021/01/19 01:20:59;0.00;0.00;0.62;0.00;0.00;0.62;3.67;1.40;;;20.00;28.20;;;;;;2258869;61;20394;-67
2021/01/19 01:23:45;0.00;0.00;0.62;0.00;0.00;0.62;1.73;1.47;;;20.00;28.20;;;;;;2258439;61;20372;-63
2021/01/19 01:26:30;0.00;0.00;0.62;0.00;0.00;0.62;1.50;1.10;;;20.00;28.20;;;;;;2255448;61;20379;-63
2021/01/19 01:29:16;0.00;0.00;0.62;0.00;0.00;0.62;1.87;1.20;;;20.00;28.20;;;;;;2256965;61;20406;-63
2021/01/19 01:32:01;0.00;0.00;0.62;0.00;0.00;0.62;1.87;1.23;;;20.00;28.20;;;;;;2257869;61;20359;-62
2021/01/19 01:34:46;0.00;0.00;0.62;0.00;0.00;0.62;1.40;1.07;;;20.00;28.20;;;;;;2257786;61;20359;-63
2021/01/19 01:37:31;0.00;0.00;0.62;0.00;0.00;0.62;1.80;1.13;;;20.00;28.20;;;;;;2259290;61;20495;-61
2021/01/19 01:40:20;0.00;0.00;0.62;0.00;0.00;0.62;1.30;0.90;;;20.00;28.20;;;;;;2255045;61;20362;-63
2021/01/19 01:43:15;0.00;0.00;0.62;0.00;0.00;0.62;1.40;1.03;;;20.00;28.20;;;;;;2257734;61;20460;-61
2021/01/19 01:46:01;0.00;0.00;0.62;0.00;0.00;0.62;1.50;1.10;;;20.00;28.20;;;;;;2257519;61;20378;-61
2021/01/19 01:48:48;0.00;0.00;0.62;0.00;0.00;0.62;1.80;1.20;;;20.00;28.20;;;;;;2257807;61;20383;-62
2021/01/19 01:51:34;0.00;0.00;0.62;0.00;0.00;0.62;1.60;1.00;;;20.00;28.20;;;;;;2256674;61;20383;-61
2021/01/19 01:54:19;0.00;0.00;0.62;0.00;0.00;0.62;2.30;1.33;;;20.00;28.10;;;;;;2257714;61;20459;-63
2021/01/19 01:57:06;0.00;0.00;0.62;0.00;0.00;0.62;1.47;1.17;;;20.00;28.10;;;;;;2258055;61;20394;-63
2021/01/19 01:59:58;0.00;0.00;0.62;0.00;0.00;0.62;2.00;1.60;;;20.00;28.10;;;;;;2256991;61;20363;-63
2021/01/19 02:02:53;0.00;0.00;0.62;0.00;0.00;0.62;3.00;2.13;;;20.00;28.00;;;;;;2258018;61;20368;-63
2021/01/19 02:05:38;0.00;0.00;0.62;0.00;0.00;0.62;2.77;2.20;;;20.00;28.00;;;;;;2257589;61;20387;-63
2021/01/19 02:08:40;0.00;0.00;0.62;0.00;0.00;0.62;2.40;1.80;;;20.00;28.00;;;;;;2257447;61;20432;-63
2021/01/19 02:11:49;0.00;0.00;0.62;0.00;0.00;0.62;2.70;2.50;;;20.00;27.90;;;;;;2257906;61;20802;-63
2021/01/19 02:14:39;0.00;0.00;0.62;0.00;0.00;0.62;4.23;3.03;;;19.90;27.80;;;;;;2256369;61;20355;-63
2021/01/19 02:17:32;0.00;0.00;0.62;0.00;0.00;0.62;4.77;3.50;;;19.90;27.70;;;;;;2257970;61;20384;-63
2021/01/19 02:20:56;0.00;0.00;0.62;0.00;0.00;0.62;4.10;2.83;;;19.90;27.70;;;;;;2257251;61;20428;-63
2021/01/19 02:23:55;0.00;0.00;0.62;0.00;0.00;0.62;3.33;3.00;;;19.80;27.60;;;;;;2257921;61;20483;-64
2021/01/19 02:27:21;0.00;0.00;0.62;0.00;0.00;0.62;3.77;3.47;;;19.80;27.50;;;;;;2257820;61;20376;-64
2021/01/19 02:30:22;0.00;0.00;0.62;0.00;0.00;0.62;3.20;2.83;;;19.70;27.50;;;;;;2257574;61;20390;-64
2021/01/19 02:33:21;0.00;0.00;0.62;0.00;0.00;0.62;3.77;3.47;;;19.70;27.50;;;;;;2258164;61;20576;-64
2021/01/19 02:36:19;0.00;0.00;0.62;0.00;0.00;0.62;3.10;2.90;;;19.60;27.30;;;;;;2256971;61;20750;-64
2021/01/19 02:39:04;0.00;0.00;0.62;0.00;0.00;0.62;4.73;3.87;;;19.60;27.30;;;;;;2258206;61;20692;-64
2021/01/19 02:41:52;0.00;0.00;0.62;0.00;0.00;0.62;3.53;3.00;;;19.50;27.30;;;;;;2257954;61;20719;-64
2021/01/19 02:44:40;0.00;0.00;0.62;0.00;0.00;0.62;3.70;3.00;;;19.50;27.30;;;;;;2257507;61;20355;-63
2021/01/19 02:47:24;0.00;0.00;0.62;0.00;0.00;0.62;3.47;3.17;;;19.50;27.20;;;;;;2258113;61;20387;-63
2021/01/19 02:50:12;0.00;0.00;0.62;0.00;0.00;0.62;3.93;3.63;;;19.40;27.20;;;;;;2257321;61;20606;-64
2021/01/19 02:52:58;0.00;0.00;0.62;0.00;0.00;0.62;4.07;3.47;;;19.40;27.20;;;;;;2258061;61;20630;-63
2021/01/19 02:55:45;0.00;0.00;0.62;0.00;0.00;0.62;4.97;3.97;;;19.40;27.20;;;;;;2258109;61;20374;-64
2021/01/19 02:58:44;0.00;0.00;0.62;0.00;0.00;0.62;4.00;3.70;;;19.30;27.00;;;;;;2257156;61;20428;-63
2021/01/19 03:01:35;0.00;0.00;0.62;0.00;0.00;0.62;3.73;3.43;;;19.30;27.00;;;;;;2257999;61;20571;-64
2021/01/19 03:04:21;0.00;0.00;0.62;0.00;0.00;0.62;3.60;3.17;;;19.30;27.10;;;;;;2257458;61;20423;-63
2021/01/19 03:07:08;0.00;0.00;0.62;0.00;0.00;0.62;4.63;3.40;;;19.20;27.00;;;;;;2257721;61;20379;-64
2021/01/19 03:09:53;0.00;0.00;0.62;0.00;0.00;0.62;4.90;3.10;;;19.20;27.10;;;;;;2257996;61;20390;-63
2021/01/19 03:12:42;0.00;0.00;0.62;0.00;0.00;0.62;3.93;3.07;;;19.20;27.10;;;;;;2257772;61;20443;-63
2021/01/19 03:15:27;0.00;0.00;0.62;0.00;0.00;0.62;4.07;2.67;;;19.20;27.10;;;;;;2258363;61;20379;-64
2021/01/19 03:18:12;0.00;0.00;0.62;0.00;0.00;0.62;2.40;2.20;;;19.10;27.00;;;;;;2258590;61;20583;-64
2021/01/19 03:20:57;0.00;0.00;0.62;0.00;0.00;0.62;3.03;2.73;;;19.10;27.00;;;;;;2257137;61;20387;-63
2021/01/19 03:23:43;0.00;0.00;0.62;0.00;0.00;0.62;3.27;2.90;;;19.00;27.00;;;;;;2258930;61;20359;-64
2021/01/19 03:26:28;0.00;0.00;0.62;0.00;0.00;0.62;2.87;2.67;;;19.10;27.10;;;;;;2259090;61;20755;-67
2021/01/19 03:29:12;0.00;0.00;0.62;0.00;0.00;0.62;3.53;2.60;;;19.10;27.20;;;;;;2260168;61;20359;-65
2021/01/19 03:31:57;0.00;0.00;0.62;0.00;0.00;0.62;3.07;2.70;;;19.00;27.10;;;;;;2259192;61;20384;-64
2021/01/19 03:34:42;0.00;0.00;0.62;0.00;0.00;0.62;3.70;3.13;;;19.00;27.10;;;;;;2258138;61;20772;-63
2021/01/19 03:37:27;0.00;0.00;0.62;0.00;0.00;0.62;3.27;2.57;;;18.90;26.90;;;;;;2258723;61;20449;-64
2021/01/19 03:40:14;0.00;0.00;0.62;0.00;0.00;0.62;5.80;3.27;;;18.90;26.90;;;;;;2258429;61;20440;-64
2021/01/19 03:42:59;0.00;0.00;0.62;0.00;0.00;0.62;3.13;2.57;;;18.90;26.90;;;;;;2257679;61;20363;-64
2021/01/19 03:45:44;0.00;0.00;0.62;0.00;0.00;0.62;3.63;3.03;;;18.90;26.90;;;;;;2258573;61;20804;-64
2021/01/19 03:48:29;0.00;0.00;0.62;0.00;0.00;0.62;2.37;2.17;;;18.90;27.00;;;;;;2258238;61;20352;-64
2021/01/19 03:51:15;0.00;0.00;0.62;0.00;0.00;0.62;3.10;2.80;;;18.80;26.90;;;;;;2258098;61;20426;-64
2021/01/19 03:54:00;0.00;0.00;0.62;0.00;0.00;0.62;3.80;2.70;;;18.80;26.90;;;;;;2258595;61;20367;-64
2021/01/19 03:56:47;0.00;0.00;0.62;0.00;0.00;0.62;3.50;2.23;;;18.80;26.90;;;;;;2257893;61;20590;-64
2021/01/19 03:59:31;0.00;0.00;0.62;0.00;0.00;0.62;5.70;3.40;;;18.80;26.90;;;;;;2258440;61;20366;-64
2021/01/19 04:02:16;0.00;0.00;0.62;0.00;0.00;0.62;2.83;2.50;;;18.80;26.90;;;;;;2258366;61;20359;-64
2021/01/19 04:05:01;0.00;0.00;0.62;0.00;0.00;0.62;4.37;2.63;;;18.80;26.90;;;;;;2257531;61;20363;-64
2021/01/19 04:07:46;0.00;0.00;0.62;0.00;0.00;0.62;3.30;2.23;;;18.70;26.90;;;;;;2258707;61;20387;-64
2021/01/19 04:10:31;0.00;0.00;0.62;0.00;0.00;0.62;3.63;2.60;;;18.70;27.40;;;;;;2258408;61;20382;-63
2021/01/19 04:13:17;0.00;0.00;0.62;0.00;0.00;0.62;3.10;2.80;;;18.70;26.90;;;;;;2258317;61;20651;-64
2021/01/19 04:16:03;0.00;0.00;0.62;0.00;0.00;0.62;3.27;2.50;;;18.70;27.50;;;;;;2259160;61;20390;-64
2021/01/19 04:18:47;0.00;0.00;0.62;0.00;0.00;0.62;3.67;2.20;;;18.70;26.90;;;;;;2258736;61;20359;-64
2021/01/19 04:21:33;0.00;0.00;0.62;0.00;0.00;0.62;3.37;2.90;;;18.60;26.90;;;;;;2258784;61;20512;-63
2021/01/19 04:24:18;0.00;0.00;0.62;0.00;0.00;0.62;3.40;2.80;;;18.60;26.80;;;;;;2259220;61;20395;-64
2021/01/19 04:27:04;0.00;0.00;0.62;0.00;0.00;0.62;3.27;2.80;;;18.60;26.80;;;;;;2258990;61;20440;-64
2021/01/19 04:29:49;0.00;0.00;0.62;0.00;0.00;0.62;3.53;2.83;;;18.60;26.80;;;;;;2259430;61;20409;-64
2021/01/19 04:32:35;0.00;0.00;0.62;0.00;0.00;0.62;4.70;2.70;;;18.60;26.80;;;;;;2258460;61;20415;-63
2021/01/19 04:35:19;0.00;0.00;0.62;0.00;0.00;0.62;3.83;2.77;;;18.60;26.80;;;;;;2257689;61;20727;-63
2021/01/19 04:38:04;0.00;0.00;0.62;0.00;0.00;0.62;2.97;2.60;;;18.50;26.80;;;;;;2258301;61;20359;-64
2021/01/19 04:40:49;0.00;0.00;0.62;0.00;0.00;0.62;2.70;2.50;;;18.50;26.80;;;;;;2257309;61;20367;-63
2021/01/19 04:43:34;0.00;0.00;0.62;0.00;0.00;0.62;2.93;2.20;;;18.50;26.80;;;;;;2258110;61;20364;-63
2021/01/19 04:46:21;0.00;0.00;0.62;0.00;0.00;0.62;3.10;2.60;;;18.50;26.90;;;;;;2257960;61;20375;-64
2021/01/19 04:49:06;0.00;0.00;0.62;0.00;0.00;0.62;3.40;2.07;;;18.50;26.90;;;;;;2257386;61;20371;-63
2021/01/19 04:51:52;0.00;0.00;0.62;0.00;0.00;0.62;2.90;1.90;;;18.50;26.90;;;;;;2258288;61;20387;-63
2021/01/19 04:54:56;0.00;0.00;0.62;0.00;0.00;0.62;2.63;2.40;;;18.40;26.80;;;;;;2258302;61;20363;-63
2021/01/19 04:57:42;0.00;0.00;0.62;0.00;0.00;0.62;2.47;2.13;;;18.40;26.80;;;;;;2258039;61;20578;-64
2021/01/19 05:00:30;0.00;0.00;0.62;0.00;0.00;0.62;2.43;2.00;;;18.40;26.90;;;;;;2258259;61;20387;-64
2021/01/19 05:03:20;0.00;0.00;0.62;0.00;0.00;0.62;3.30;2.00;;;18.40;26.90;;;;;;2257711;61;20686;-63
2021/01/19 05:07:13;0.00;0.00;0.62;0.00;0.00;0.62;2.93;2.17;;;18.40;26.90;;;;;;2258085;61;20379;-64
2021/01/19 05:10:08;0.00;0.00;0.62;0.00;0.00;0.62;5.47;2.87;;;18.40;27.40;;;;;;2257818;61;20579;-64
2021/01/19 05:13:06;0.00;0.00;0.62;0.00;0.00;0.62;3.00;2.13;;;18.30;26.80;;;;;;2257946;61;20363;-63
2021/01/19 05:15:51;0.00;0.00;0.62;0.00;0.00;0.62;2.60;1.87;;;18.30;26.80;;;;;;2258240;61;20415;-63
2021/01/19 05:18:38;0.00;0.00;0.62;0.00;0.00;0.62;5.57;2.20;;;18.30;26.80;;;;;;2257028;61;20386;-63
2021/01/19 05:21:23;0.00;0.00;0.62;0.00;0.00;0.62;4.93;1.93;;;18.30;26.80;;;;;;2258017;61;20359;-64
2021/01/19 05:24:09;0.00;0.00;0.62;0.00;0.00;0.62;2.70;1.93;;;18.20;26.70;;;;;;2258261;61;20367;-64
2021/01/19 05:26:54;0.00;0.00;0.62;0.00;0.00;0.62;1.73;1.63;;;18.20;26.70;;;;;;2257342;61;20405;-64
2021/01/19 05:29:38;0.00;0.00;0.62;0.00;0.00;0.62;3.40;1.60;;;18.20;26.70;;;;;;2258002;61;20598;-63
2021/01/19 05:32:33;0.00;0.00;0.62;0.00;0.00;0.62;3.70;1.80;;;18.20;26.70;;;;;;2257408;61;20364;-63
2021/01/19 05:35:21;0.00;0.00;0.62;0.00;0.00;0.62;2.77;1.70;;;18.20;26.70;;;;;;2257337;61;20368;-63
2021/01/19 05:38:06;0.00;0.00;0.62;0.00;0.00;0.62;2.20;1.60;;;18.20;26.60;;;;;;2257978;61;20719;-64
2021/01/19 05:40:51;0.00;0.00;0.62;0.00;0.00;0.62;3.00;1.70;;;18.20;26.70;;;;;;2256795;61;20499;-63
2021/01/19 05:43:35;0.00;0.00;0.62;0.00;0.00;0.62;2.60;2.00;;;18.10;26.60;;;;;;2257819;61;20387;-62
2021/01/19 05:46:27;0.00;0.00;0.62;0.00;0.00;0.62;2.60;1.33;;;18.10;26.70;;;;;;2257597;61;20468;-63
2021/01/19 05:49:21;0.00;0.00;0.62;0.00;0.00;0.62;4.33;1.60;;;18.10;26.70;;;;;;2256846;61;20426;-63
2021/01/19 05:52:09;0.00;0.00;0.62;0.00;0.00;0.62;3.20;1.33;;;18.10;26.70;;;;;;2257891;61;20378;-63
2021/01/19 05:54:56;0.00;0.00;0.62;0.00;0.00;0.62;2.23;1.43;;;18.10;26.70;;;;;;2257260;61;20359;-65
2021/01/19 05:57:40;0.00;0.00;0.62;0.00;0.00;0.62;2.63;1.60;;;18.10;26.70;;;;;;2257481;61;20395;-65
2021/01/19 06:00:27;0.00;0.00;0.62;0.00;0.00;0.62;2.77;1.50;;;18.10;26.70;;;;;;2257871;61;20354;-65
2021/01/19 06:03:16;0.00;0.00;0.62;0.00;0.00;0.62;3.27;1.77;;;18.10;26.80;;;;;;2256842;61;20379;-65
2021/01/19 06:06:14;0.00;0.00;0.62;0.00;0.00;0.62;3.90;1.70;;;18.10;26.80;;;;;;2258003;61;20715;-65
2021/01/19 06:09:02;0.00;0.00;0.62;0.00;0.00;0.62;2.23;1.60;;;18.10;26.80;;;;;;2257986;61;20359;-65
2021/01/19 06:11:51;0.00;0.00;0.62;0.00;0.00;0.62;3.97;1.73;;;18.10;26.80;;;;;;2257263;61;20519;-64
2021/01/19 06:14:37;0.00;0.00;0.62;0.00;0.00;0.62;2.43;1.70;;;18.10;27.30;;;;;;2257821;61;20411;-65
2021/01/19 06:17:22;0.00;0.00;0.62;0.00;0.00;0.62;1.73;1.33;;;18.10;26.70;;;;;;2257020;61;20375;-63
2021/01/19 06:20:08;0.00;0.00;0.62;0.00;0.00;0.62;2.30;1.40;;;18.00;26.60;;;;;;2257641;61;20424;-65
2021/01/19 06:23:04;0.00;0.00;0.62;0.00;0.00;0.62;7.30;2.53;;;18.10;26.70;;;;;;2257867;61;20359;-65
2021/01/19 06:25:50;0.00;0.00;0.62;0.00;0.00;0.62;3.13;1.83;;;18.00;26.50;;;;;;2256696;61;20426;-65
2021/01/19 06:28:42;0.00;0.00;0.62;0.00;0.00;0.62;1.97;1.60;;;18.00;26.50;;;;;;2257867;61;20363;-64
2021/01/19 06:31:28;0.00;0.00;0.62;0.00;0.00;0.62;6.90;2.37;;;18.00;26.60;;;;;;2257110;61;20439;-62
2021/01/19 06:34:24;0.00;0.00;0.62;0.00;0.00;0.62;4.43;2.10;;;18.00;26.50;;;;;;2257459;61;20402;-65
2021/01/19 06:37:22;0.00;0.00;0.62;0.00;0.00;0.62;4.90;2.83;;;18.00;26.50;;;;;;2257935;61;20423;-63
2021/01/19 06:40:10;0.00;0.00;0.62;0.00;0.00;0.62;3.20;2.23;;;18.00;26.60;;;;;;2256470;61;20367;-63
2021/01/19 06:42:59;0.00;0.00;0.62;0.00;0.00;0.62;3.00;2.10;;;17.90;26.50;;;;;;2257826;61;20391;-64
2021/01/19 06:45:47;0.00;0.00;0.62;0.00;0.00;0.62;3.20;1.67;;;17.90;26.50;;;;;;2257597;61;20733;-63
2021/01/19 06:48:34;0.00;0.00;0.62;0.00;0.00;0.62;4.03;1.90;;;17.90;26.60;;;;;;2256523;61;20819;-63
2021/01/19 06:51:20;0.00;0.00;0.62;0.00;0.00;0.62;4.23;2.30;;;17.90;26.60;;;;;;2257843;61;20672;-63
2021/01/19 06:54:11;0.00;0.00;0.62;0.00;0.00;0.62;3.10;2.27;;;17.90;26.70;;;;;;2256984;61;20386;-64
2021/01/19 06:57:05;0.00;0.00;0.62;0.00;0.00;0.62;2.70;1.87;;;17.90;26.70;;;;;;2257338;61;20375;-64
2021/01/19 07:00:05;0.00;0.00;0.62;0.00;0.00;0.62;2.40;1.93;;;17.80;27.20;;;;;;2257576;61;20735;-63
2021/01/19 07:02:51;0.00;0.00;0.62;0.00;0.00;0.62;2.70;1.70;;;17.90;26.70;;;;;;2256713;61;20742;-63
2021/01/19 07:05:39;0.00;0.00;0.62;0.00;0.00;0.62;2.43;1.73;;;17.90;26.80;;;;;;2257787;61;20379;-63
2021/01/19 07:09:24;0.00;0.00;0.62;0.00;0.00;0.62;4.27;2.00;;;17.90;26.80;;;;;;2257157;61;20383;-63
2021/01/19 07:12:09;0.00;0.00;0.62;0.00;0.00;0.62;3.23;1.80;;;17.90;26.80;;;;;;2257793;61;20621;-64
2021/01/19 07:15:05;0.00;0.00;0.62;0.00;0.00;0.62;4.80;2.13;;;17.80;27.20;;;;;;2257505;61;20831;-63
2021/01/19 07:18:31;0.00;0.00;0.62;0.00;0.00;0.62;4.37;2.03;;;17.80;26.80;;;;;;2256894;61;20475;-63
2021/01/19 07:21:18;0.00;0.00;0.62;0.00;0.00;0.62;2.93;2.00;;;17.80;26.80;;;;;;2257483;61;20371;-63
2021/01/19 07:24:17;0.00;0.00;0.62;0.00;0.00;0.62;1.80;1.50;;;17.80;26.70;;;;;;2256731;61;20366;-63
2021/01/19 07:27:03;0.00;0.00;0.62;0.00;0.00;0.62;5.53;2.30;;;17.80;26.70;;;;;;2257950;61;20395;-63
2021/01/19 07:29:48;0.00;0.00;0.62;0.00;0.00;0.62;2.30;1.80;;;17.80;26.70;;;;;;2257579;61;20637;-64
2021/01/19 07:32:36;0.00;0.00;0.62;0.00;0.00;0.62;3.73;2.47;;;17.80;26.70;;;;;;2256723;61;20371;-62
2021/01/19 07:35:24;0.00;0.00;0.62;0.00;0.00;0.62;6.83;3.17;;;17.70;26.80;;;;;;2257406;61;20374;-62
2021/01/19 07:38:08;0.00;0.00;0.62;0.00;0.00;0.62;4.13;2.30;;;17.70;26.90;;;;;;2256978;61;20394;-62
2021/01/19 07:40:55;0.00;0.00;0.62;0.00;0.00;0.62;6.60;2.73;;;17.70;26.90;;;;;;2257175;61;20370;-62
2021/01/19 07:43:40;0.00;0.00;0.62;0.00;0.00;0.62;4.27;2.60;;;17.70;26.90;;;;;;2257698;61;20358;-62
2021/01/19 07:46:27;0.00;0.00;0.62;0.00;0.00;0.62;5.57;2.33;;;17.70;26.90;;;;;;2257004;61;20651;-63
2021/01/19 07:49:18;0.00;0.00;0.62;0.00;0.00;0.62;3.80;1.80;;;17.70;26.90;;;;;;2257540;61;20367;-64
2021/01/19 07:52:39;0.00;0.00;0.62;0.00;0.00;0.62;3.57;1.93;;;17.70;27.00;;;;;;2257554;61;20739;-65
2021/01/19 07:55:24;0.00;0.00;0.62;0.00;0.00;0.62;4.90;1.80;;;17.60;27.00;;;;;;2257053;61;20617;-64
2021/01/19 07:58:18;0.00;0.00;0.62;0.00;0.00;0.62;6.67;2.57;;;17.70;27.00;;;;;;2257353;61;20398;-65
2021/01/19 08:01:04;0.00;0.00;0.62;0.00;0.00;0.62;2.43;1.70;;;17.70;27.10;;;;;;2257013;61;20379;-65
2021/01/19 08:03:49;0.00;0.00;0.62;0.00;0.00;0.62;5.50;2.00;;;17.70;27.10;;;;;;2257367;61;20577;-64
2021/01/19 08:06:35;0.00;0.00;0.62;0.00;0.00;0.62;8.10;2.40;;;17.70;27.10;;;;;;2257223;61;20383;-64
2021/01/19 08:09:20;0.00;0.00;0.62;0.00;0.00;0.62;5.00;2.23;;;17.70;27.60;;;;;;2257230;61;20367;-65
2021/01/19 08:12:08;0.00;0.00;0.62;0.00;0.00;0.62;5.43;2.00;;;17.70;27.10;;;;;;2258064;61;20613;-65
2021/01/19 08:15:04;0.00;0.00;0.62;0.00;0.00;0.62;3.30;1.70;;;17.60;27.00;;;;;;2258055;61;20371;-66
2021/01/19 08:17:51;0.00;0.00;0.62;0.00;0.00;0.62;5.70;2.33;;;17.70;27.10;;;;;;2257535;61;20406;-65
2021/01/19 08:20:36;0.00;0.00;0.62;0.00;0.00;0.62;7.17;2.03;;;17.70;27.10;;;;;;2256731;61;20359;-66
2021/01/19 08:23:24;0.00;0.00;0.62;0.00;0.00;0.62;2.77;1.83;;;17.70;27.10;;;;;;2256300;61;20395;-65
2021/01/19 08:26:10;0.00;0.00;0.62;0.00;0.00;0.62;3.40;1.47;;;17.70;27.10;;;;;;2257651;61;20383;-65
2021/01/19 08:28:54;0.00;0.00;0.62;0.00;0.00;0.62;3.53;2.23;;;17.60;27.00;;;;;;2258023;61;20425;-66
2021/01/19 08:31:39;0.00;0.00;0.62;0.00;0.00;0.62;1.83;1.50;;;17.70;27.10;;;;;;2256705;61;20443;-65
2021/01/19 08:34:26;0.00;0.00;0.62;0.00;0.00;0.62;4.50;1.70;;;17.60;27.10;;;;;;2258155;61;20835;-67
2021/01/19 08:37:17;0.00;0.00;0.62;0.00;0.00;0.62;4.50;1.63;;;17.60;27.00;;;;;;2257302;61;20423;-67
2021/01/19 08:40:04;0.00;0.00;0.62;0.00;0.00;0.62;2.23;1.10;;;17.60;27.10;;;;;;2257410;61;20739;-66
2021/01/19 08:42:49;0.00;0.00;0.62;0.00;0.00;0.62;3.20;1.60;;;17.60;27.10;;;;;;2257752;61;20482;-66
2021/01/19 08:45:40;0.00;0.00;0.62;0.00;0.00;0.62;2.97;1.53;;;17.70;27.20;;;;;;2257685;61;20430;-66
2021/01/19 08:48:26;0.00;0.00;0.62;0.00;0.00;0.62;1.87;1.20;;;17.70;27.30;;;;;;2258241;61;20366;-64
2021/01/19 08:51:23;0.00;0.00;0.62;0.00;0.00;0.62;2.40;1.20;;;17.70;27.30;;;;;;2258069;61;20387;-63
2021/01/19 08:54:10;0.00;0.00;0.62;0.00;0.00;0.62;1.87;1.20;;;17.70;27.40;;;;;;2257271;61;20402;-64
2021/01/19 08:56:55;0.00;0.00;0.62;0.00;0.00;0.62;2.80;1.37;;;17.80;27.40;;;;;;2258024;61;20411;-64
2021/01/19 08:59:50;0.00;0.00;0.62;0.00;0.00;0.62;4.70;1.30;;;17.80;27.50;;;;;;2257531;61;20434;-62
2021/01/19 09:02:35;0.00;0.00;0.62;0.00;0.00;0.62;2.73;1.40;;;17.80;27.50;;;;;;2257903;61;20366;-64
2021/01/19 09:05:28;0.00;0.00;0.62;0.00;0.00;0.62;3.60;1.30;;;17.90;27.50;;;;;;2258072;61;20406;-67
2021/01/19 09:08:15;0.00;0.00;0.62;0.00;0.00;0.62;4.33;1.20;;;17.90;28.10;;;;;;2257120;61;20367;-66
2021/01/19 09:11:05;0.00;0.00;0.62;0.00;0.00;0.62;2.17;1.27;;;17.90;27.50;;;;;;2258011;61;20601;-65
2021/01/19 09:13:54;0.00;0.00;0.62;0.00;0.00;0.62;1.60;1.20;;;18.00;27.60;;;;;;2257895;61;20411;-66
2021/01/19 09:16:40;0.00;0.00;0.62;0.00;0.00;0.62;1.63;0.97;;;18.00;27.60;;;;;;2257306;61;20614;-65
2021/01/19 09:19:24;0.00;0.00;0.62;0.00;0.00;0.62;1.77;1.20;;;18.00;27.50;;;;;;2257792;61;20366;-62
2021/01/19 09:22:09;0.00;0.00;0.62;0.00;0.00;0.62;2.70;1.23;;;18.10;27.70;;;;;;2257483;61;20436;-65
2021/01/19 09:24:55;0.00;0.00;0.62;0.00;0.00;0.62;4.63;1.23;;;18.10;27.60;;;;;;2257705;61;20371;-64
2021/01/19 09:27:41;0.00;0.00;0.62;0.00;0.00;0.62;2.13;1.00;;;18.10;27.60;;;;;;2257959;61;20715;-64
2021/01/19 09:30:28;0.00;0.00;0.62;0.00;0.00;0.62;2.03;1.07;;;18.20;27.70;;;;;;2257273;61;20383;-65
2021/01/19 09:33:13;0.00;0.00;0.62;0.00;0.00;0.62;1.50;1.03;;;18.20;27.70;;;;;;2257972;61;20446;-66
2021/01/19 09:36:06;0.00;0.00;0.62;0.00;0.00;0.62;1.77;1.10;;;18.20;27.60;;;;;;2257719;61;20451;-64
2021/01/19 09:38:53;0.00;0.00;0.62;0.00;0.00;0.62;1.33;0.83;;;18.20;27.60;;;;;;2256697;61;20366;-65
2021/01/19 09:41:42;0.00;0.00;0.62;0.00;0.00;0.62;1.43;0.80;;;18.30;27.70;;;;;;2257712;61;20510;-64
2021/01/19 09:44:30;0.00;0.00;0.62;0.00;0.00;0.62;1.40;0.90;;;18.30;27.70;;;;;;2257492;61;20372;-67
2021/01/19 09:47:21;0.00;0.00;0.62;0.00;0.00;0.62;1.57;0.80;;;18.30;27.60;;;;;;2257006;61;20391;-65
2021/01/19 09:50:08;0.00;0.00;0.62;0.00;0.00;0.62;1.80;1.10;;;18.40;27.70;;;;;;2257675;61;20499;-65
2021/01/19 09:52:53;0.00;0.00;0.62;0.00;0.00;0.62;2.40;1.03;;;18.40;27.70;;;;;;2256889;61;20402;-63
2021/01/19 09:55:38;0.00;0.00;0.62;0.00;0.00;0.62;1.53;0.90;;;18.40;27.70;;;;;;2257618;61;20410;-66
2021/01/19 09:58:25;0.00;0.00;0.62;0.00;0.00;0.62;2.23;1.10;;;18.40;27.60;;;;;;2257751;61;20364;-67
2021/01/19 10:01:22;0.00;0.00;0.62;0.00;0.00;0.62;1.13;0.70;;;18.40;27.70;;;;;;2257592;61;20626;-65
2021/01/19 10:04:17;0.00;0.00;0.62;0.00;0.00;0.62;3.37;1.30;;;18.50;27.70;;;;;;2257774;61;20439;-63
2021/01/19 10:07:05;0.00;0.00;0.62;0.00;0.00;0.62;1.67;0.90;;;18.50;27.70;;;;;;2257511;61;20755;-64
2021/01/19 10:09:49;0.00;0.00;0.62;0.00;0.00;0.62;1.30;0.80;;;18.50;27.70;;;;;;2257668;61;20764;-64
2021/01/19 10:12:34;0.00;0.00;0.62;0.00;0.00;0.62;1.50;0.90;;;18.50;28.20;;;;;;2257824;61;20716;-65
2021/01/19 10:15:22;0.00;0.00;0.62;0.00;0.00;0.62;1.30;0.87;;;18.60;27.70;;;;;;2256927;61;20379;-68
2021/01/19 10:18:07;0.00;0.00;0.62;0.00;0.00;0.62;1.30;0.80;;;18.60;27.70;;;;;;2257960;61;20390;-63
2021/01/19 10:20:54;0.00;0.00;0.62;0.00;0.00;0.62;2.60;1.43;;;18.60;27.70;;;;;;2257517;61;20426;-65
2021/01/19 10:23:39;0.00;0.00;0.62;0.00;0.00;0.62;2.10;0.90;;;18.60;27.70;;;;;;2257572;61;20363;-64
2021/01/19 10:26:29;0.00;0.00;0.62;0.00;0.00;0.62;2.63;0.90;;;18.60;27.70;;;;;;2257968;61;20606;-64
2021/01/19 10:29:21;0.00;0.00;0.62;0.00;0.00;0.62;1.77;0.93;;;18.60;27.70;;;;;;2257268;61;20366;-64
2021/01/19 10:32:11;0.00;0.00;0.62;0.00;0.00;0.62;1.33;0.70;;;18.70;27.80;;;;;;2257322;61;20410;-65
2021/01/19 10:34:56;0.00;0.00;0.62;0.00;0.00;0.62;1.40;0.90;;;18.70;27.80;;;;;;2257290;61;20739;-64
2021/01/19 10:37:54;0.00;0.00;0.62;0.00;0.00;0.62;1.57;0.83;;;18.70;27.80;;;;;;2256624;61;20386;-63
2021/01/19 10:40:45;0.00;0.00;0.62;0.00;0.00;0.62;1.77;1.00;;;18.70;27.80;;;;;;2257656;61;20367;-67
2021/01/19 10:43:30;0.00;0.00;0.62;0.00;0.00;0.62;1.40;1.17;;;18.70;27.80;;;;;;2257399;61;20413;-66
2021/01/19 10:46:20;0.00;0.00;0.62;0.00;0.00;0.62;1.80;0.93;;;18.70;27.70;;;;;;2257508;61;20382;-65
2021/01/19 10:49:09;0.00;0.00;0.62;0.00;0.00;0.62;1.70;0.90;;;18.70;27.80;;;;;;2257621;61;20448;-65
2021/01/19 10:51:54;0.00;0.00;0.62;0.00;0.00;0.62;1.50;0.90;;;18.80;27.80;;;;;;2256562;61;20605;-66
2021/01/19 10:54:39;0.00;0.00;0.62;0.00;0.00;0.62;1.33;0.90;;;18.80;27.80;;;;;;2257823;61;20758;-64
2021/01/19 10:57:24;0.00;0.00;0.62;0.00;0.00;0.62;1.20;0.80;;;18.80;27.80;;;;;;2257792;61;20806;-64
2021/01/19 11:00:11;0.00;0.00;0.62;0.00;0.00;0.62;1.50;0.90;;;18.80;27.80;;;;;;2256802;61;20439;-66
2021/01/19 11:02:57;0.00;0.00;0.62;0.00;0.00;0.62;1.57;0.90;;;18.80;27.80;;;;;;2257748;61;20363;-67
2021/01/19 11:05:42;0.00;0.00;0.62;0.00;0.00;0.62;1.93;1.03;;;18.80;27.80;;;;;;2257079;61;20398;-66